Pierceville, IN (47039)

9:04 PM EDT on April 30, 2017 (GMT -0400)
RCEMA - Versailles | | Change Station

Elev 955 ft 39.07 °N, 85.25 °W | Updated 4 minutes ago

Mostly Cloudy
Mostly Cloudy
70.9 °F
Feels Like 74 °F
N
7.0
Wind Variable Wind from South
Gusts 7.0 mph

Today
High -- | Low -- °F
--% Chance of Precip.
Yesterday
High -- | Low -- °F
Precip. -- in
Pressure 29.75 in
Visibility 10.0 miles
Clouds Mostly Cloudy 11000 ft
Heat Index 74 °F
Dew Point 61 °F
Humidity 71%
Rainfall 0.00 in
Snow Depth Not available.
6:43 AM 8:33 PM
Waxing Crescent, 27% visible
METAR KCVG 010052Z COR 15022G27KT 10SM -RA BKN110CB 22/18 A2978 RMK AO2 PK WND 19037/0011 LTG DSNT E RAB07 SLP075 CB E MOV NE P0001 T02170178
Pressure 29.75 in
Visibility 10.0 miles
Clouds Mostly Cloudy 11000 ft
Heat Index 74 °F
Dew Point 61 °F
Humidity 71%
Rainfall 0.00 in
Snow Depth Not available.
6:43 AM 8:33 PM
Waxing Crescent, 27% visible
METAR KCVG 010052Z COR 15022G27KT 10SM -RA BKN110CB 22/18 A2978 RMK AO2 PK WND 19037/0011 LTG DSNT E RAB07 SLP075 CB E MOV NE P0001 T02170178

Get Severe Weather Alerts

Thanks for signing up!

Be on the lookout for a verification email in your inbox.

You'll start receiving the daily forecast at 8 AM.

×

10-Day Weather Forecast

Almanac

Astronomy

Apr. 30, 2017 Rise Set
Actual Time
Civil Twilight
Nautical Twilight
Astronomical Twilight
Moon
Length of Visible Light
Length of Day
Tomorrow will be .
, % of the Moon is Illuminated

Today's Extremes

State Highs State Lows

Community

WunderPhotos

WunderBlog® & News

Nearby

Air Quality

  Air Quality AQ Index Pollutant
Not available.

Snow Depth

Station Depth Elevation

Earthquake Activity

City Distance Mag. Time & Date
Minimum magnitude displayed is 2.5.

Coastal Water Temperatures

Place Temperature

Stations

Nearby Weather Stations

Station Location Temp. Windchill Dew Point Humidity Wind Precip. Elev Updated Type
                   

Watches & Warnings

There are currently no watches in effect.